Time;durP1;ratioP1;P1;durP2;ratioP2;P2;SDS_P1;SDS_P2;PMS_P1;PMS_P2;Temp;Humidity;BMP_temperature;BMP_pressure;BME280_temperature;BME280_humidity;BME280_pressure;Samples;Min_cycle;Max_cycle;Signal;HPM_P1;HPM_P2
2023/06/04 00:02:04;;;;;;;4.53;1.10;;;12.20;1.00;;;;;;5121938;28;20200;-81
2023/06/04 00:04:30;;;;;;;2.53;1.40;;;12.30;99.90;;;;;;5122387;28;20182;-80
2023/06/04 00:06:56;;;;;;;2.30;1.43;;;12.20;1.00;;;;;;5119432;28;20209;-80
2023/06/04 00:09:21;;;;;;;3.33;1.53;;;12.20;1.00;;;;;;5119470;28;20204;-79
2023/06/04 00:11:47;;;;;;;3.63;1.60;;;12.10;1.00;;;;;;5120981;28;20573;-80
2023/06/04 00:14:16;;;;;;;1.83;1.17;;;12.00;1.00;;;;;;5121444;28;20177;-81
2023/06/04 00:16:42;;;;;;;2.90;1.63;;;12.00;1.00;;;;;;5120989;28;20192;-80
2023/06/04 00:19:08;;;;;;;2.30;1.23;;;12.00;4.20;;;;;;5126313;28;20173;-80
2023/06/04 00:21:34;;;;;;;1.77;1.30;;;11.90;1.00;;;;;;5124914;28;20185;-80
2023/06/04 00:24:00;;;;;;;3.97;1.50;;;11.90;1.00;;;;;;5127502;28;20207;-80
2023/06/04 00:26:26;;;;;;;2.53;1.07;;;11.80;1.00;;;;;;5127788;28;20322;-80
2023/06/04 00:28:53;;;;;;;1.83;1.20;;;11.80;6.60;;;;;;5127086;28;20698;-80
2023/06/04 00:31:21;;;;;;;2.63;1.30;;;11.80;99.90;;;;;;5125989;28;20204;-80
2023/06/04 00:33:47;;;;;;;1.53;1.20;;;11.70;99.90;;;;;;5123337;28;20185;-81
2023/06/04 00:36:12;;;;;;;1.37;1.27;;;11.70;99.90;;;;;;5124725;28;20189;-81
2023/06/04 00:38:38;;;;;;;1.83;1.43;;;11.70;99.90;;;;;;5123171;28;20177;-80
2023/06/04 00:41:03;;;;;;;2.87;1.40;;;11.70;99.90;;;;;;5124808;28;20174;-80
2023/06/04 00:43:31;;;;;;;3.73;1.57;;;11.70;99.90;;;;;;5124055;28;20173;-80
2023/06/04 00:45:57;;;;;;;1.73;1.20;;;11.70;99.90;;;;;;5124844;28;20716;-81
2023/06/04 00:48:23;;;;;;;2.07;1.63;;;11.60;1.00;;;;;;5124108;28;20177;-80
2023/06/04 00:50:49;;;;;;;3.97;1.30;;;11.60;99.90;;;;;;5124993;28;20192;-81
2023/06/04 00:53:15;;;;;;;2.80;1.83;;;11.50;99.90;;;;;;5124970;28;20237;-81
2023/06/04 00:55:41;;;;;;;2.00;1.40;;;11.50;99.90;;;;;;5124709;28;20189;-81
2023/06/04 00:58:08;;;;;;;1.63;1.20;;;11.50;99.90;;;;;;5124986;28;20196;-80
2023/06/04 01:00:34;;;;;;;4.87;1.70;;;11.50;1.00;;;;;;5125361;28;20174;-81
2023/06/04 01:03:05;;;;;;;1.60;1.30;;;11.40;99.90;;;;;;5125702;28;20596;-80
2023/06/04 01:05:42;;;;;;;2.80;1.33;;;11.40;99.90;;;;;;5126824;28;20178;-80
2023/06/04 01:08:09;;;;;;;2.00;1.40;;;11.40;99.90;;;;;;5126773;28;20166;-81
2023/06/04 01:10:35;;;;;;;1.97;1.20;;;11.40;99.90;;;;;;5127209;28;20208;-80
2023/06/04 01:13:01;;;;;;;2.30;1.50;;;11.30;99.90;;;;;;5127710;28;20177;-81
2023/06/04 01:15:27;;;;;;;2.13;1.23;;;11.30;99.90;;;;;;5127226;28;20219;-80
2023/06/04 01:18:02;;;;;;;2.73;1.20;;;11.30;99.90;;;;;;5128245;28;20181;-81
2023/06/04 01:20:41;;;;;;;1.97;1.30;;;11.40;99.90;;;;;;5129030;28;20165;-80
2023/06/04 01:23:34;;;;;;;2.80;1.40;;;11.30;99.90;;;;;;5130963;28;20248;-81
2023/06/04 01:26:04;;;;;;;2.83;1.33;;;11.40;99.90;;;;;;5130191;28;20195;-80
2023/06/04 01:28:34;;;;;;;2.00;1.30;;;11.30;1.00;;;;;;5131483;28;20215;-80
2023/06/04 01:31:01;;;;;;;1.43;1.20;;;11.40;1.00;;;;;;5130890;28;20162;-80
2023/06/04 01:33:27;;;;;;;1.90;1.40;;;11.40;1.00;;;;;;5131515;28;20173;-80
2023/06/04 01:35:53;;;;;;;1.83;1.60;;;11.40;1.00;;;;;;5130394;28;20189;-80
2023/06/04 01:38:19;;;;;;;1.27;1.00;;;11.40;1.70;;;;;;5133720;28;20178;-80
2023/06/04 01:40:45;;;;;;;1.67;1.20;;;11.40;1.00;;;;;;5134917;28;20197;-80
2023/06/04 01:43:11;;;;;;;1.83;1.47;;;11.40;1.00;;;;;;5134166;28;20165;-80
2023/06/04 01:45:36;;;;;;;2.67;1.27;;;11.60;1.00;;;;;;5128773;28;20190;-80
2023/06/04 01:48:04;;;;;;;3.43;1.10;;;11.60;1.00;;;;;;5125551;28;20181;-80
2023/06/04 01:50:30;;;;;;;2.13;0.93;;;11.50;1.00;;;;;;5126297;28;20205;-79
2023/06/04 01:52:56;;;;;;;2.23;1.40;;;11.60;1.00;;;;;;5126076;28;20234;-80
2023/06/04 01:55:22;;;;;;;3.07;1.10;;;11.50;1.00;;;;;;5127855;28;20272;-80
2023/06/04 01:57:48;;;;;;;1.80;1.30;;;11.50;1.00;;;;;;5125423;28;20177;-81
2023/06/04 02:00:14;;;;;;;2.50;1.30;;;11.60;1.00;;;;;;5126285;28;20196;-81
2023/06/04 02:02:42;;;;;;;4.50;1.30;;;11.60;1.00;;;;;;5126380;28;20192;-80
2023/06/04 02:05:08;;;;;;;2.60;1.30;;;11.60;1.00;;;;;;5126009;28;20196;-81
2023/06/04 02:07:35;;;;;;;2.13;1.20;;;11.60;1.00;;;;;;5124516;28;20181;-80
2023/06/04 02:10:00;;;;;;;1.33;1.23;;;11.50;1.00;;;;;;5125188;28;20287;-80
2023/06/04 02:12:26;;;;;;;1.63;1.10;;;11.80;99.90;;;;;;5123277;28;20173;-80
2023/06/04 02:14:51;;;;;;;3.30;1.33;;;11.70;43.30;;;;;;5125583;28;20170;-80
2023/06/04 02:17:17;;;;;;;1.43;1.30;;;11.60;1.00;;;;;;5123937;28;20181;-80
2023/06/04 02:19:50;;;;;;;1.90;1.37;;;11.60;1.00;;;;;;5124089;28;20178;-80
2023/06/04 02:22:19;;;;;;;2.30;1.37;;;11.60;1.00;;;;;;5123080;28;20196;-81
2023/06/04 02:24:46;;;;;;;2.13;1.40;;;11.60;1.00;;;;;;5123641;28;20189;-79
2023/06/04 02:27:12;;;;;;;2.73;1.40;;;11.60;1.00;;;;;;5122840;28;20642;-81
2023/06/04 02:29:39;;;;;;;5.37;1.20;;;11.60;1.00;;;;;;5123241;28;20193;-80
2023/06/04 02:32:06;;;;;;;1.93;1.30;;;11.60;99.90;;;;;;5124021;28;20235;-80
2023/06/04 02:34:31;;;;;;;2.97;1.20;;;11.50;99.90;;;;;;5126324;28;20184;-81
2023/06/04 02:36:58;;;;;;;2.83;1.47;;;11.50;99.90;;;;;;5129046;28;20182;-80
2023/06/04 02:39:24;;;;;;;3.17;1.20;;;11.50;99.90;;;;;;5127268;28;20227;-80
2023/06/04 02:41:49;;;;;;;2.90;1.50;;;11.50;99.90;;;;;;5121411;28;20592;-80
2023/06/04 02:44:15;;;;;;;3.20;1.13;;;11.50;1.00;;;;;;5121697;28;20174;-80
2023/06/04 02:46:41;;;;;;;1.80;1.13;;;11.50;1.00;;;;;;5120897;28;20247;-80
2023/06/04 02:49:06;;;;;;;3.03;1.30;;;11.50;1.00;;;;;;5120501;28;20292;-79
2023/06/04 02:51:32;;;;;;;4.33;0.97;;;11.50;1.00;;;;;;5121562;28;20189;-81
2023/06/04 02:53:58;;;;;;;2.07;1.00;;;11.60;1.00;;;;;;5120583;28;20176;-80
2023/06/04 02:56:25;;;;;;;1.77;1.17;;;11.40;1.00;;;;;;5120141;28;20739;-80
2023/06/04 02:58:53;;;;;;;3.53;1.33;;;11.40;1.00;;;;;;5122463;27;20169;-80
2023/06/04 03:01:20;;;;;;;2.43;1.20;;;11.40;34.80;;;;;;5122102;28;20162;-80
2023/06/04 03:03:47;;;;;;;2.17;1.37;;;11.40;1.00;;;;;;5120934;28;20248;-80
2023/06/04 03:06:15;;;;;;;2.70;1.47;;;11.30;1.00;;;;;;5120106;28;20193;-80
2023/06/04 03:08:41;;;;;;;2.40;1.50;;;11.30;1.00;;;;;;5121053;28;20197;-80
2023/06/04 03:11:07;;;;;;;2.80;1.17;;;11.30;72.80;;;;;;5120645;28;20276;-81
2023/06/04 03:13:33;;;;;;;1.97;1.33;;;11.30;99.90;;;;;;5120419;28;20193;-81
2023/06/04 03:16:01;;;;;;;2.30;1.27;;;11.30;1.00;;;;;;5120273;28;20201;-80
2023/06/04 03:18:29;;;;;;;1.80;1.37;;;11.20;99.90;;;;;;5123246;28;20652;-81
2023/06/04 03:20:55;;;;;;;2.53;1.53;;;11.20;99.90;;;;;;5121577;28;20200;-81
2023/06/04 03:23:21;;;;;;;2.43;1.40;;;11.10;1.00;;;;;;5121975;28;20196;-81
2023/06/04 03:25:47;;;;;;;4.40;1.20;;;11.20;1.00;;;;;;5122381;28;20536;-81
2023/06/04 03:28:13;;;;;;;3.60;1.50;;;11.10;1.00;;;;;;5124469;28;20237;-80
2023/06/04 03:30:40;;;;;;;2.20;1.40;;;11.00;7.50;;;;;;5121840;28;20690;-80
2023/06/04 03:33:06;;;;;;;2.10;1.37;;;11.00;99.90;;;;;;5119916;28;20192;-80
2023/06/04 03:35:31;;;;;;;2.30;1.37;;;10.90;99.90;;;;;;5119773;28;20730;-79
2023/06/04 03:37:57;;;;;;;3.90;1.40;;;10.90;1.00;;;;;;5120081;28;20173;-80
2023/06/04 03:40:22;;;;;;;1.40;1.10;;;10.90;1.00;;;;;;5122756;28;20189;-80
2023/06/04 03:42:48;;;;;;;5.57;2.00;;;10.90;96.10;;;;;;5123144;28;20185;-81
2023/06/04 03:45:14;;;;;;;2.77;1.33;;;10.80;4.00;;;;;;5123667;28;20196;-80
2023/06/04 03:47:39;;;;;;;2.50;1.20;;;10.80;99.90;;;;;;5121587;28;20261;-80
2023/06/04 03:50:06;;;;;;;2.57;1.20;;;10.80;99.90;;;;;;5119836;28;20205;-80
2023/06/04 03:52:31;;;;;;;2.17;1.40;;;10.80;99.90;;;;;;5121885;28;20173;-80
2023/06/04 03:54:57;;;;;;;2.20;1.47;;;10.70;99.90;;;;;;5122803;28;20561;-80
2023/06/04 03:57:22;;;;;;;3.60;1.50;;;10.70;99.90;;;;;;5121889;28;20173;-80
2023/06/04 03:59:48;;;;;;;1.93;1.27;;;10.70;99.90;;;;;;5123256;28;20170;-80
2023/06/04 04:02:14;;;;;;;3.47;1.73;;;10.60;1.00;;;;;;5120734;28;20499;-79
2023/06/04 04:04:40;;;;;;;2.60;1.40;;;10.70;1.00;;;;;;5120911;28;20550;-80
2023/06/04 04:07:05;;;;;;;2.13;1.53;;;10.70;1.00;;;;;;5121577;28;20280;-80
2023/06/04 04:09:31;;;;;;;2.27;1.30;;;10.70;99.90;;;;;;5121237;28;20284;-80
2023/06/04 04:11:57;;;;;;;2.80;1.50;;;10.70;99.90;;;;;;5122912;28;20173;-80
2023/06/04 04:14:22;;;;;;;3.03;1.40;;;10.60;99.90;;;;;;5123004;28;20180;-80
2023/06/04 04:16:48;;;;;;;3.20;1.40;;;10.70;99.90;;;;;;5121161;28;20262;-80
2023/06/04 04:19:14;;;;;;;5.90;1.57;;;10.60;1.00;;;;;;5121571;28;20256;-80
2023/06/04 04:21:40;;;;;;;2.07;1.40;;;10.70;1.00;;;;;;5121341;28;20218;-80
2023/06/04 04:24:06;;;;;;;2.23;1.43;;;10.70;1.00;;;;;;5120194;28;20213;-80
2023/06/04 04:26:32;;;;;;;5.87;1.93;;;10.70;99.90;;;;;;5119751;28;20704;-80
2023/06/04 04:28:59;;;;;;;3.67;1.37;;;10.70;1.00;;;;;;5121974;28;20194;-80
2023/06/04 04:31:30;;;;;;;2.33;1.60;;;10.80;1.00;;;;;;5121819;28;20176;-79
2023/06/04 04:33:56;;;;;;;3.13;1.70;;;10.80;1.00;;;;;;5125224;28;20258;-81
2023/06/04 04:36:21;;;;;;;3.07;1.60;;;10.80;1.00;;;;;;5125739;28;20200;-80
2023/06/04 04:38:53;;;;;;;3.70;2.20;;;10.80;1.00;;;;;;5125670;28;20173;-80
2023/06/04 04:41:22;;;;;;;2.77;1.50;;;10.80;99.90;;;;;;5127435;28;20526;-81
2023/06/04 04:43:48;;;;;;;1.97;1.40;;;10.90;1.00;;;;;;5125920;28;20170;-80
2023/06/04 04:46:13;;;;;;;5.47;1.90;;;10.90;1.00;;;;;;5125819;28;20193;-80
2023/06/04 04:48:40;;;;;;;3.40;1.57;;;10.90;1.00;;;;;;5126645;28;20181;-81
2023/06/04 04:51:06;;;;;;;2.93;1.70;;;10.90;99.90;;;;;;5126650;28;20190;-80
2023/06/04 04:53:31;;;;;;;2.53;1.80;;;11.00;66.50;;;;;;5127977;28;20684;-81
2023/06/04 04:55:57;;;;;;;2.90;1.50;;;11.00;20.20;;;;;;5126605;28;20198;-80
2023/06/04 04:58:23;;;;;;;3.63;1.43;;;11.00;1.00;;;;;;5126727;28;20169;-81
2023/06/04 05:00:49;;;;;;;4.97;1.63;;;11.10;1.00;;;;;;5128145;28;20181;-80
2023/06/04 05:03:15;;;;;;;3.60;2.53;;;11.20;70.50;;;;;;5128606;28;20173;-80
2023/06/04 05:05:40;;;;;;;5.37;1.63;;;11.20;1.00;;;;;;5122369;28;20545;-80
2023/06/04 05:08:06;;;;;;;4.40;1.87;;;11.30;1.00;;;;;;5119189;28;20204;-80
2023/06/04 05:10:31;;;;;;;3.20;1.90;;;11.30;1.00;;;;;;5121382;28;20201;-80
2023/06/04 05:12:58;;;;;;;3.77;1.90;;;11.40;1.00;;;;;;5123609;28;20170;-80
2023/06/04 05:15:26;;;;;;;4.27;1.73;;;11.40;1.00;;;;;;5122957;28;20190;-80
2023/06/04 05:17:52;;;;;;;3.07;1.93;;;11.50;99.90;;;;;;5122467;28;20602;-80
2023/06/04 05:20:18;;;;;;;2.93;1.70;;;11.60;99.90;;;;;;5120884;28;20177;-80
2023/06/04 05:22:45;;;;;;;3.50;1.67;;;11.60;1.00;;;;;;5121748;28;20232;-80
2023/06/04 05:25:11;;;;;;;4.60;2.03;;;11.70;99.90;;;;;;5121730;28;20220;-80
2023/06/04 05:27:37;;;;;;;8.20;2.10;;;11.80;1.00;;;;;;5124351;28;20177;-80
2023/06/04 05:30:03;;;;;;;3.90;1.77;;;11.80;1.00;;;;;;5122843;27;20212;-80
2023/06/04 05:32:30;;;;;;;2.93;1.63;;;11.80;1.00;;;;;;5119321;28;20526;-80
2023/06/04 05:34:57;;;;;;;4.03;1.63;;;11.80;1.00;;;;;;5118266;28;20174;-78
2023/06/04 05:37:34;;;;;;;4.33;1.80;;;11.90;92.50;;;;;;5118319;28;20197;-80
2023/06/04 05:39:59;;;;;;;2.27;1.90;;;11.90;99.90;;;;;;5119701;28;20156;-80
2023/06/04 05:42:25;;;;;;;4.57;1.87;;;12.00;1.00;;;;;;5118246;28;20205;-81
2023/06/04 05:44:51;;;;;;;4.43;1.83;;;12.00;99.90;;;;;;5118817;28;20192;-81
2023/06/04 05:47:18;;;;;;;2.13;1.50;;;12.10;82.40;;;;;;5122200;28;20643;-79
2023/06/04 05:49:43;;;;;;;2.60;1.70;;;12.30;99.90;;;;;;5130402;28;20264;-81
2023/06/04 05:52:09;;;;;;;2.83;1.70;;;12.30;1.00;;;;;;5127642;28;20189;-80
2023/06/04 05:54:36;;;;;;;3.40;1.50;;;12.40;1.00;;;;;;5128579;28;20170;-80
2023/06/04 05:57:02;;;;;;;3.40;1.67;;;12.40;1.00;;;;;;5131703;28;20674;-81
2023/06/04 05:59:29;;;;;;;3.90;1.87;;;12.50;1.00;;;;;;5133621;28;20644;-80
2023/06/04 06:01:54;;;;;;;1.90;1.70;;;12.50;1.00;;;;;;5132598;28;20196;-81
2023/06/04 06:04:20;;;;;;;3.53;1.80;;;12.60;1.00;;;;;;5128801;28;20638;-80
2023/06/04 06:06:48;;;;;;;3.50;1.67;;;12.70;1.00;;;;;;5131616;28;20193;-80
2023/06/04 06:09:14;;;;;;;3.10;1.73;;;12.70;99.90;;;;;;5128878;28;20193;-80
2023/06/04 06:11:40;;;;;;;5.77;1.83;;;12.60;99.90;;;;;;5126752;28;20191;-80
2023/06/04 06:14:06;;;;;;;3.30;1.67;;;12.80;99.90;;;;;;5127716;28;20233;-80
2023/06/04 06:16:32;;;;;;;2.37;1.53;;;12.90;99.90;;;;;;5125428;28;20190;-81
2023/06/04 06:18:58;;;;;;;3.93;1.37;;;13.00;99.90;;;;;;5126696;28;20223;-81
2023/06/04 06:21:23;;;;;;;2.57;1.40;;;13.00;1.00;;;;;;5126471;28;20203;-80
2023/06/04 06:23:49;;;;;;;5.07;1.50;;;13.10;99.90;;;;;;5128375;28;20257;-80
2023/06/04 06:26:15;;;;;;;2.03;1.20;;;13.20;99.90;;;;;;5126535;28;20246;-81
2023/06/04 06:28:42;;;;;;;2.63;1.33;;;13.30;99.90;;;;;;5126787;28;20174;-79
2023/06/04 06:31:07;;;;;;;2.67;1.37;;;13.40;99.90;;;;;;5128228;28;20174;-81
2023/06/04 06:33:33;;;;;;;2.07;1.20;;;13.50;1.00;;;;;;5129584;28;20174;-80
2023/06/04 06:36:01;;;;;;;6.20;1.43;;;13.60;1.00;;;;;;5128870;28;20190;-80
2023/06/04 06:38:27;;;;;;;1.50;1.00;;;13.70;1.00;;;;;;5129036;27;20176;-80
2023/06/04 06:40:53;;;;;;;2.57;1.50;;;13.70;1.00;;;;;;5126634;28;20545;-81
2023/06/04 06:43:18;;;;;;;2.27;1.73;;;13.80;1.00;;;;;;5131447;28;20189;-80
2023/06/04 06:45:44;;;;;;;2.47;1.37;;;14.00;1.00;;;;;;5131016;28;20197;-80
2023/06/04 06:48:10;;;;;;;2.70;1.30;;;14.00;1.00;;;;;;5131816;28;20169;-80
2023/06/04 06:50:36;;;;;;;2.40;1.00;;;14.00;1.00;;;;;;5129751;28;20196;-81
2023/06/04 06:53:04;;;;;;;1.50;1.30;;;14.10;1.00;;;;;;5131001;28;20213;-81
2023/06/04 06:55:30;;;;;;;2.17;1.30;;;14.20;1.00;;;;;;5131141;28;20188;-80
2023/06/04 06:57:55;;;;;;;3.27;1.40;;;14.30;1.00;;;;;;5127843;28;20613;-81
2023/06/04 07:00:21;;;;;;;1.60;1.27;;;14.40;1.00;;;;;;5128468;28;20188;-80
2023/06/04 07:02:46;;;;;;;1.73;1.17;;;14.50;1.00;;;;;;5128797;28;20268;-79
2023/06/04 07:05:15;;;;;;;4.03;1.67;;;14.50;1.00;;;;;;5123438;28;20270;-79
2023/06/04 07:07:40;;;;;;;1.27;1.00;;;14.70;99.90;;;;;;5116573;28;20185;-79
2023/06/04 07:10:06;;;;;;;3.17;1.27;;;14.70;99.90;;;;;;5114986;28;20595;-77
2023/06/04 07:12:31;;;;;;;3.47;1.27;;;14.90;99.90;;;;;;5115074;28;20215;-79
2023/06/04 07:14:57;;;;;;;1.67;1.27;;;14.90;1.00;;;;;;5114506;28;20643;-79
2023/06/04 07:17:22;;;;;;;2.97;1.47;;;15.00;1.00;;;;;;5114159;28;20198;-78
2023/06/04 07:19:48;;;;;;;2.33;1.50;;;15.00;99.90;;;;;;5113136;28;20703;-78
2023/06/04 07:22:15;;;;;;;1.73;1.20;;;15.20;1.00;;;;;;5113642;28;20185;-79
2023/06/04 07:24:41;;;;;;;5.37;1.00;;;15.30;99.90;;;;;;5114671;28;20176;-79
2023/06/04 07:27:14;;;;;;;2.43;1.20;;;15.40;99.90;;;;;;5112002;28;20194;-80
2023/06/04 07:29:40;;;;;;;3.43;1.40;;;15.40;99.90;;;;;;5114449;28;20193;-79
2023/06/04 07:32:06;;;;;;;6.10;1.40;;;15.60;99.90;;;;;;5114438;28;20181;-79
2023/06/04 07:34:32;;;;;;;2.50;1.30;;;15.60;99.90;;;;;;5114266;28;20184;-79
2023/06/04 07:36:57;;;;;;;3.70;1.37;;;15.70;99.90;;;;;;5114333;28;20190;-79
2023/06/04 07:39:23;;;;;;;3.00;1.33;;;15.90;99.90;;;;;;5112992;28;20687;-79
2023/06/04 07:41:48;;;;;;;5.87;1.43;;;16.00;99.90;;;;;;5113729;28;20174;-79
2023/06/04 07:44:14;;;;;;;4.33;1.30;;;16.10;1.00;;;;;;5114168;28;20231;-79
2023/06/04 07:46:40;;;;;;;2.80;1.27;;;16.10;99.90;;;;;;5117942;28;20201;-79
2023/06/04 07:49:05;;;;;;;2.80;1.53;;;16.30;99.90;;;;;;5115517;28;20204;-79
2023/06/04 07:51:31;;;;;;;5.67;1.90;;;16.20;99.90;;;;;;5117313;28;20165;-79
2023/06/04 07:53:57;;;;;;;3.63;1.70;;;16.40;1.00;;;;;;5115849;28;20503;-80
2023/06/04 07:56:23;;;;;;;4.63;1.80;;;16.40;99.90;;;;;;5115629;28;20204;-80
2023/06/04 07:58:48;;;;;;;4.27;1.43;;;16.50;99.90;;;;;;5116391;28;20183;-80
2023/06/04 08:01:14;;;;;;;2.43;1.60;;;16.60;99.90;;;;;;5117844;28;20689;-80
2023/06/04 08:03:41;;;;;;;7.23;2.50;;;16.70;99.90;;;;;;5117653;28;20223;-80
2023/06/04 08:06:07;;;;;;;5.70;2.13;;;16.80;99.90;;;;;;5117759;28;20184;-79
2023/06/04 08:08:33;;;;;;;18.43;2.47;;;16.90;99.90;;;;;;5116080;28;20162;-79
2023/06/04 08:10:59;;;;;;;7.13;2.17;;;17.00;99.90;;;;;;5116438;28;20218;-80
2023/06/04 08:13:25;;;;;;;8.20;2.30;;;17.20;99.90;;;;;;5115807;28;20592;-79
2023/06/04 08:15:50;;;;;;;5.17;1.63;;;17.20;99.90;;;;;;5115041;28;20270;-80
2023/06/04 08:18:16;;;;;;;4.03;2.17;;;17.40;99.90;;;;;;5120785;28;20223;-80
2023/06/04 08:20:41;;;;;;;6.40;1.97;;;17.40;99.90;;;;;;5122702;28;20169;-79
2023/06/04 08:23:07;;;;;;;3.93;1.90;;;17.50;99.90;;;;;;5118518;28;20233;-79
2023/06/04 08:25:33;;;;;;;1.83;1.30;;;17.70;99.90;;;;;;5115182;28;20194;-79
2023/06/04 08:27:59;;;;;;;2.90;1.90;;;17.80;99.90;;;;;;5115278;28;20169;-79
2023/06/04 08:30:27;;;;;;;3.13;1.87;;;17.90;70.10;;;;;;5114850;28;20231;-79
2023/06/04 08:32:53;;;;;;;4.20;1.87;;;17.90;99.90;;;;;;5114547;28;20165;-79
2023/06/04 08:35:18;;;;;;;3.37;2.00;;;18.00;99.90;;;;;;5114414;28;20194;-79
2023/06/04 08:37:44;;;;;;;3.30;1.73;;;18.20;1.00;;;;;;5115858;28;20631;-79
2023/06/04 08:40:10;;;;;;;4.97;2.00;;;18.30;34.10;;;;;;5117494;28;20196;-79
2023/06/04 08:42:46;;;;;;;4.47;2.07;;;18.40;1.00;;;;;;5117387;28;20185;-78
2023/06/04 08:45:13;;;;;;;4.73;1.90;;;18.50;24.80;;;;;;5120264;28;20269;-79
2023/06/04 08:47:49;;;;;;;4.20;2.10;;;18.50;96.50;;;;;;5122590;28;20694;-78
2023/06/04 08:50:17;;;;;;;2.30;1.43;;;18.60;90.60;;;;;;5121337;28;20519;-79
2023/06/04 08:52:43;;;;;;;7.07;1.80;;;18.70;35.10;;;;;;5121796;28;20176;-78
2023/06/04 08:55:11;;;;;;;7.13;1.73;;;18.70;22.70;;;;;;5121802;28;20283;-78
2023/06/04 08:57:37;;;;;;;4.77;1.70;;;18.80;99.90;;;;;;5121644;28;20180;-79
2023/06/04 09:00:05;;;;;;;4.00;1.80;;;18.80;24.20;;;;;;5119964;28;20242;-79
2023/06/04 09:02:31;;;;;;;3.77;1.57;;;18.90;29.70;;;;;;5120396;28;20196;-78
2023/06/04 09:04:57;;;;;;;4.43;1.50;;;19.10;1.00;;;;;;5122365;28;20169;-78
2023/06/04 09:07:23;;;;;;;4.33;1.60;;;19.20;1.00;;;;;;5121316;28;20201;-78
2023/06/04 09:09:50;;;;;;;2.20;1.90;;;19.20;91.50;;;;;;5121335;28;20291;-79
2023/06/04 09:12:23;;;;;;;4.60;1.90;;;19.30;1.00;;;;;;5120086;28;20174;-79
2023/06/04 09:14:50;;;;;;;2.13;1.40;;;19.30;1.00;;;;;;5121277;28;20154;-79
2023/06/04 09:17:21;;;;;;;4.03;1.80;;;19.40;1.00;;;;;;5120016;28;20197;-79
2023/06/04 09:19:46;;;;;;;2.77;1.77;;;19.50;1.00;;;;;;5120710;28;20181;-79
2023/06/04 09:22:12;;;;;;;2.40;1.43;;;19.50;1.00;;;;;;5121077;28;20185;-79
2023/06/04 09:24:46;;;;;;;1.93;1.57;;;19.60;1.00;;;;;;5122212;28;20245;-79
2023/06/04 09:27:14;;;;;;;9.97;1.90;;;19.60;1.00;;;;;;5121907;28;20157;-79
2023/06/04 09:29:48;;;;;;;2.23;1.57;;;19.70;1.00;;;;;;5123444;28;20202;-79
2023/06/04 09:32:13;;;;;;;1.77;1.30;;;19.70;1.00;;;;;;5120616;28;20177;-78
2023/06/04 09:34:44;;;;;;;3.87;1.70;;;19.80;1.00;;;;;;5121475;28;20174;-80
2023/06/04 09:37:15;;;;;;;5.00;1.60;;;19.90;99.90;;;;;;5120611;28;20170;-78
2023/06/04 09:39:41;;;;;;;2.07;1.37;;;19.90;37.80;;;;;;5121934;28;20239;-80
2023/06/04 09:42:07;;;;;;;2.93;1.43;;;20.00;1.00;;;;;;5122456;28;20178;-79
2023/06/04 09:44:44;;;;;;;1.83;1.10;;;20.00;1.00;;;;;;5122087;28;20646;-79
2023/06/04 09:47:10;;;;;;;2.50;1.20;;;20.00;1.00;;;;;;5121646;28;20608;-79
2023/06/04 09:49:46;;;;;;;2.03;1.40;;;20.10;1.00;;;;;;5120635;28;20225;-79
2023/06/04 09:52:12;;;;;;;6.80;1.27;;;20.10;1.00;;;;;;5121150;28;20661;-79
2023/06/04 09:54:39;;;;;;;3.20;1.40;;;20.20;1.00;;;;;;5122749;28;20170;-80
2023/06/04 09:57:25;;;;;;;3.63;1.63;;;20.40;99.90;;;;;;5121570;28;20185;-79
2023/06/04 09:59:52;;;;;;;4.30;1.33;;;20.40;99.90;;;;;;5122022;28;20158;-79
2023/06/04 10:02:21;;;;;;;5.50;1.83;;;20.50;99.90;;;;;;5122333;28;20187;-79
2023/06/04 10:04:58;;;;;;;2.43;1.30;;;20.50;99.90;;;;;;5122344;27;20177;-80
2023/06/04 10:07:25;;;;;;;2.37;1.50;;;20.60;23.40;;;;;;5121261;28;20165;-78
2023/06/04 10:09:52;;;;;;;4.47;1.40;;;20.60;1.00;;;;;;5121504;28;20193;-79
2023/06/04 10:12:25;;;;;;;5.60;1.60;;;20.70;99.90;;;;;;5122178;28;20170;-79
2023/06/04 10:14:56;;;;;;;2.00;1.30;;;20.70;1.00;;;;;;5122390;28;20645;-79
2023/06/04 10:17:23;;;;;;;5.53;1.43;;;20.80;99.90;;;;;;5120678;28;20166;-80
2023/06/04 10:19:54;;;;;;;1.43;1.33;;;20.90;1.00;;;;;;5121268;28;20166;-79
2023/06/04 10:22:22;;;;;;;3.07;1.20;;;20.90;99.90;;;;;;5120619;28;20181;-79
2023/06/04 10:24:48;;;;;;;3.33;1.57;;;20.90;99.90;;;;;;5119061;28;20657;-79
2023/06/04 10:27:16;;;;;;;2.33;1.43;;;20.90;99.90;;;;;;5119804;28;20177;-79
2023/06/04 10:29:42;;;;;;;2.57;1.50;;;20.90;99.90;;;;;;5120284;28;20205;-79
2023/06/04 10:32:08;;;;;;;3.90;1.53;;;20.90;1.00;;;;;;5119664;28;20244;-79
2023/06/04 10:34:35;;;;;;;2.60;1.53;;;21.00;99.90;;;;;;5117657;28;20215;-80
2023/06/04 10:37:02;;;;;;;2.57;1.43;;;21.00;1.00;;;;;;5119767;28;20274;-80
2023/06/04 10:39:29;;;;;;;1.27;1.17;;;20.90;99.90;;;;;;5118011;28;20642;-80
2023/06/04 10:41:59;;;;;;;3.80;1.40;;;21.00;1.00;;;;;;5117574;28;20178;-79
2023/06/04 10:44:25;;;;;;;3.13;1.40;;;21.10;99.90;;;;;;5118244;28;20265;-79
2023/06/04 10:46:50;;;;;;;1.90;1.43;;;21.20;99.90;;;;;;5119175;28;20623;-79
2023/06/04 10:49:27;;;;;;;3.07;1.63;;;21.20;1.00;;;;;;5117746;28;20216;-79
2023/06/04 10:51:52;;;;;;;3.60;1.43;;;21.30;99.90;;;;;;5118091;28;20153;-79
2023/06/04 10:54:27;;;;;;;3.87;1.30;;;21.30;99.90;;;;;;5118749;28;20166;-79
2023/06/04 10:56:53;;;;;;;3.97;1.53;;;21.20;99.90;;;;;;5117722;28;20218;-79
2023/06/04 10:59:19;;;;;;;5.60;1.63;;;21.40;1.00;;;;;;5117039;28;20256;-79
2023/06/04 11:01:45;;;;;;;3.10;1.43;;;21.50;1.00;;;;;;5117408;28;20658;-79
2023/06/04 11:04:24;;;;;;;3.47;1.60;;;21.70;1.00;;;;;;5115701;28;20178;-78
2023/06/04 11:07:09;;;;;;;2.80;1.70;;;21.60;1.00;;;;;;5116132;28;20189;-79
2023/06/04 11:09:48;;;;;;;3.53;1.70;;;21.60;1.00;;;;;;5119180;28;20685;-80
2023/06/04 11:12:14;;;;;;;1.97;1.43;;;21.60;99.90;;;;;;5118136;28;20158;-80
2023/06/04 11:14:40;;;;;;;2.70;1.60;;;21.70;99.90;;;;;;5115157;28;20684;-79
2023/06/04 11:17:12;;;;;;;3.37;1.40;;;21.80;1.00;;;;;;5116005;28;20622;-79
2023/06/04 11:19:38;;;;;;;4.33;1.60;;;21.90;99.90;;;;;;5117565;28;20277;-79
2023/06/04 11:22:12;;;;;;;6.00;1.40;;;21.90;1.00;;;;;;5116703;28;20553;-79
2023/06/04 11:24:37;;;;;;;4.17;1.50;;;22.00;1.00;;;;;;5117200;28;20146;-80
2023/06/04 11:27:03;;;;;;;2.70;1.43;;;22.00;99.90;;;;;;5116284;28;20189;-80
2023/06/04 11:29:29;;;;;;;2.90;1.40;;;22.00;99.90;;;;;;5118679;28;20220;-79
2023/06/04 11:31:55;;;;;;;3.50;1.27;;;22.00;99.90;;;;;;5117992;28;20169;-80
2023/06/04 11:34:27;;;;;;;5.00;1.47;;;22.10;99.90;;;;;;5118188;28;20256;-81
2023/06/04 11:36:53;;;;;;;4.50;1.70;;;22.00;99.90;;;;;;5115020;28;20193;-80
2023/06/04 11:39:20;;;;;;;5.40;1.60;;;22.10;99.90;;;;;;5116957;28;20173;-79
2023/06/04 11:41:46;;;;;;;2.60;1.50;;;22.10;99.90;;;;;;5114673;28;20181;-80
2023/06/04 11:44:12;;;;;;;2.13;1.70;;;22.20;99.90;;;;;;5114732;28;20196;-79
2023/06/04 11:46:43;;;;;;;1.90;1.50;;;22.40;99.90;;;;;;5115390;28;20193;-80
2023/06/04 11:49:12;;;;;;;3.47;1.50;;;22.40;99.90;;;;;;5115649;28;20197;-79
2023/06/04 11:51:37;;;;;;;2.27;1.30;;;22.40;99.90;;;;;;5114772;28;20176;-81
2023/06/04 11:54:03;;;;;;;3.87;1.40;;;22.50;99.90;;;;;;5117182;28;20257;-80
2023/06/04 11:56:29;;;;;;;1.90;1.60;;;22.50;99.90;;;;;;5117566;28;20193;-80
2023/06/04 11:58:55;;;;;;;3.40;2.17;;;22.60;99.90;;;;;;5115802;28;20176;-80
2023/06/04 12:01:21;;;;;;;4.90;1.80;;;22.80;99.90;;;;;;5114744;28;20206;-80
2023/06/04 12:03:46;;;;;;;2.00;1.37;;;22.80;99.90;;;;;;5116570;28;20170;-80
2023/06/04 12:06:17;;;;;;;2.90;1.50;;;22.80;99.90;;;;;;5117275;28;20682;-80
2023/06/04 12:08:50;;;;;;;2.57;1.93;;;22.80;99.90;;;;;;5116478;28;20241;-79
2023/06/04 12:50:28;;;;;;;3.57;1.90;;;23.40;99.90;;;;;;5058565;28;20376;-81
2023/06/04 12:52:54;;;;;;;1.70;1.40;;;23.30;99.90;;;;;;5058610;28;20191;-83
2023/06/04 12:55:19;;;;;;;3.27;1.70;;;23.50;99.90;;;;;;5057520;28;20179;-83
2023/06/04 12:57:46;;;;;;;2.37;1.40;;;23.50;99.90;;;;;;5059830;28;20168;-82
2023/06/04 13:00:11;;;;;;;2.93;1.37;;;23.60;99.90;;;;;;5060608;28;20191;-82
2023/06/04 13:02:37;;;;;;;1.97;1.50;;;23.60;99.90;;;;;;5063366;28;20594;-83
2023/06/04 13:05:03;;;;;;;2.90;1.57;;;23.80;99.90;;;;;;5062717;28;20179;-81
2023/06/04 13:07:28;;;;;;;3.35;1.75;;;23.70;99.90;;;;;;5068711;28;20201;-82
2023/06/04 13:09:54;;;;;;;3.50;2.03;;;23.70;99.90;;;;;;5067701;28;20325;-82
2023/06/04 13:12:19;;;;;;;2.43;1.53;;;23.80;99.90;;;;;;5068869;28;20215;-83
2023/06/04 13:14:45;;;;;;;2.60;1.70;;;23.90;99.90;;;;;;5067065;28;20179;-81
2023/06/04 13:17:10;;;;;;;3.50;2.03;;;24.00;99.90;;;;;;5069450;28;20178;-82
2023/06/04 13:19:36;;;;;;;3.03;1.70;;;24.00;99.90;;;;;;5068984;28;20569;-83
2023/06/04 13:22:01;;;;;;;5.07;1.80;;;24.00;99.90;;;;;;5069051;28;20618;-82
2023/06/04 13:24:27;;;;;;;2.40;1.93;;;23.90;99.90;;;;;;5064119;28;20274;-82
2023/06/04 13:26:52;;;;;;;6.25;1.98;;;23.90;99.90;;;;;;5067875;28;20210;-82
2023/06/04 13:29:22;;;;;;;4.47;1.73;;;24.00;99.90;;;;;;5070085;28;20195;-81